sensor_id;sensor_type;location;lat;lon;timestamp;pressure;altitude;pressure_sealevel;temperature;humidity
2681;BME280;1350;42.134;24.708;2023-12-07T00:01:32;99030.56;;;6.56;100.00
2681;BME280;1350;42.134;24.708;2023-12-07T00:04:01;99036.38;;;6.63;100.00
2681;BME280;1350;42.134;24.708;2023-12-07T00:06:28;99048.78;;;6.61;100.00
2681;BME280;1350;42.134;24.708;2023-12-07T00:08:55;99031.63;;;6.71;100.00
2681;BME280;1350;42.134;24.708;2023-12-07T00:11:23;99040.75;;;6.64;100.00
2681;BME280;1350;42.134;24.708;2023-12-07T00:13:50;99040.59;;;6.48;100.00
2681;BME280;1350;42.134;24.708;2023-12-07T00:16:17;99034.81;;;6.20;100.00
2681;BME280;1350;42.134;24.708;2023-12-07T00:18:44;99037.19;;;6.06;100.00
2681;BME280;1350;42.134;24.708;2023-12-07T00:21:13;99034.03;;;5.98;100.00
2681;BME280;1350;42.134;24.708;2023-12-07T00:23:40;99035.69;;;6.01;100.00
2681;BME280;1350;42.134;24.708;2023-12-07T00:26:06;99028.13;;;5.93;100.00
2681;BME280;1350;42.134;24.708;2023-12-07T00:28:33;99024.56;;;5.94;100.00
2681;BME280;1350;42.134;24.708;2023-12-07T00:31:00;99026.72;;;6.05;100.00
2681;BME280;1350;42.134;24.708;2023-12-07T00:33:27;99032.19;;;6.00;100.00
2681;BME280;1350;42.134;24.708;2023-12-07T00:35:54;99039.16;;;6.01;100.00
2681;BME280;1350;42.134;24.708;2023-12-07T00:38:22;99035.75;;;6.19;100.00
2681;BME280;1350;42.134;24.708;2023-12-07T00:40:49;99038.94;;;6.06;100.00
2681;BME280;1350;42.134;24.708;2023-12-07T00:43:15;99039.34;;;5.97;100.00
2681;BME280;1350;42.134;24.708;2023-12-07T00:45:43;99039.28;;;5.98;100.00
2681;BME280;1350;42.134;24.708;2023-12-07T00:48:10;99032.78;;;5.87;100.00
2681;BME280;1350;42.134;24.708;2023-12-07T00:50:37;99041.47;;;6.09;100.00
2681;BME280;1350;42.134;24.708;2023-12-07T00:53:04;99037.09;;;6.48;100.00
2681;BME280;1350;42.134;24.708;2023-12-07T00:55:32;99045.78;;;6.50;100.00
2681;BME280;1350;42.134;24.708;2023-12-07T00:58:00;99041.44;;;6.29;100.00
2681;BME280;1350;42.134;24.708;2023-12-07T01:00:27;99044.53;;;6.18;100.00
2681;BME280;1350;42.134;24.708;2023-12-07T01:02:54;99037.19;;;6.06;100.00
2681;BME280;1350;42.134;24.708;2023-12-07T01:05:21;99034.34;;;6.11;100.00
2681;BME280;1350;42.134;24.708;2023-12-07T01:07:48;99031.78;;;6.09;100.00
2681;BME280;1350;42.134;24.708;2023-12-07T01:10:15;99034.63;;;6.05;100.00
2681;BME280;1350;42.134;24.708;2023-12-07T01:12:44;99037.25;;;6.05;100.00
2681;BME280;1350;42.134;24.708;2023-12-07T01:15:10;99025.03;;;6.04;100.00
2681;BME280;1350;42.134;24.708;2023-12-07T01:17:38;99034.75;;;6.02;100.00
2681;BME280;1350;42.134;24.708;2023-12-07T01:20:05;99032.19;;;6.00;100.00
2681;BME280;1350;42.134;24.708;2023-12-07T01:22:37;99034.16;;;5.95;100.00
2681;BME280;1350;42.134;24.708;2023-12-07T01:25:06;99025.44;;;5.95;100.00
2681;BME280;1350;42.134;24.708;2023-12-07T01:27:33;99029.34;;;5.85;100.00
2681;BME280;1350;42.134;24.708;2023-12-07T01:30:01;99024.22;;;5.82;100.00
2681;BME280;1350;42.134;24.708;2023-12-07T01:32:29;99023.88;;;5.89;100.00
2681;BME280;1350;42.134;24.708;2023-12-07T01:34:56;99021.41;;;5.86;100.00
2681;BME280;1350;42.134;24.708;2023-12-07T01:37:22;99021.47;;;5.85;100.00
2681;BME280;1350;42.134;24.708;2023-12-07T01:39:50;99015.50;;;5.80;100.00
2681;BME280;1350;42.134;24.708;2023-12-07T01:42:17;99017.06;;;5.85;100.00
2681;BME280;1350;42.134;24.708;2023-12-07T01:44:44;99022.47;;;5.82;100.00
2681;BME280;1350;42.134;24.708;2023-12-07T01:47:12;99018.03;;;5.83;100.00
2681;BME280;1350;42.134;24.708;2023-12-07T01:49:39;99020.94;;;5.75;100.00
2681;BME280;1350;42.134;24.708;2023-12-07T01:52:08;99019.38;;;5.71;100.00
2681;BME280;1350;42.134;24.708;2023-12-07T01:54:35;99015.78;;;6.34;100.00
2681;BME280;1350;42.134;24.708;2023-12-07T01:57:03;99020.28;;;6.32;100.00
2681;BME280;1350;42.134;24.708;2023-12-07T01:59:30;99020.09;;;6.16;100.00
2681;BME280;1350;42.134;24.708;2023-12-07T02:01:57;99024.09;;;6.05;100.00
2681;BME280;1350;42.134;24.708;2023-12-07T02:04:26;99028.06;;;5.95;100.00
2681;BME280;1350;42.134;24.708;2023-12-07T02:06:54;99018.00;;;5.84;100.00
2681;BME280;1350;42.134;24.708;2023-12-07T02:09:23;99022.25;;;5.87;100.00
2681;BME280;1350;42.134;24.708;2023-12-07T02:11:50;99019.44;;;5.91;100.00
2681;BME280;1350;42.134;24.708;2023-12-07T02:14:17;99017.22;;;5.81;100.00
2681;BME280;1350;42.134;24.708;2023-12-07T02:16:48;99026.19;;;5.97;100.00
2681;BME280;1350;42.134;24.708;2023-12-07T02:19:31;99025.81;;;5.86;100.00
2681;BME280;1350;42.134;24.708;2023-12-07T02:22:10;99025.81;;;5.86;100.00
2681;BME280;1350;42.134;24.708;2023-12-07T02:24:42;99023.31;;;5.81;100.00
2681;BME280;1350;42.134;24.708;2023-12-07T02:27:14;99016.19;;;5.85;100.00
2681;BME280;1350;42.134;24.708;2023-12-07T02:29:40;99012.34;;;5.72;100.00
2681;BME280;1350;42.134;24.708;2023-12-07T02:32:07;99006.78;;;5.79;100.00
2681;BME280;1350;42.134;24.708;2023-12-07T02:34:34;99017.34;;;5.78;100.00
2681;BME280;1350;42.134;24.708;2023-12-07T02:37:02;99012.09;;;5.78;100.00
2681;BME280;1350;42.134;24.708;2023-12-07T02:39:30;99010.88;;;5.86;100.00
2681;BME280;1350;42.134;24.708;2023-12-07T02:41:57;99014.50;;;5.84;100.00
2681;BME280;1350;42.134;24.708;2023-12-07T02:44:26;99006.47;;;5.87;100.00
2681;BME280;1350;42.134;24.708;2023-12-07T02:46:53;99005.91;;;6.39;100.00
2681;BME280;1350;42.134;24.708;2023-12-07T02:49:21;99007.47;;;6.43;100.00
2681;BME280;1350;42.134;24.708;2023-12-07T02:51:47;99012.91;;;6.20;100.00
2681;BME280;1350;42.134;24.708;2023-12-07T02:54:14;99013.84;;;5.99;100.00
2681;BME280;1350;42.134;24.708;2023-12-07T02:56:41;99018.91;;;6.03;100.00
2681;BME280;1350;42.134;24.708;2023-12-07T02:59:08;99016.88;;;5.90;100.00
2681;BME280;1350;42.134;24.708;2023-12-07T03:01:37;99015.31;;;5.86;100.00
2681;BME280;1350;42.134;24.708;2023-12-07T03:04:04;99010.03;;;5.86;100.00
2681;BME280;1350;42.134;24.708;2023-12-07T03:06:31;99007.75;;;5.77;100.00
2681;BME280;1350;42.134;24.708;2023-12-07T03:08:57;99004.53;;;5.70;100.00
2681;BME280;1350;42.134;24.708;2023-12-07T03:11:24;99009.06;;;5.67;100.00
2681;BME280;1350;42.134;24.708;2023-12-07T03:13:51;99018.59;;;5.69;100.00
2681;BME280;1350;42.134;24.708;2023-12-07T03:16:18;99015.19;;;5.67;100.00
2681;BME280;1350;42.134;24.708;2023-12-07T03:18:47;99031.22;;;5.61;100.00
2681;BME280;1350;42.134;24.708;2023-12-07T03:21:14;99020.69;;;5.61;100.00
2681;BME280;1350;42.134;24.708;2023-12-07T03:23:41;99016.28;;;5.62;100.00
2681;BME280;1350;42.134;24.708;2023-12-07T03:26:08;99020.44;;;5.67;100.00
2681;BME280;1350;42.134;24.708;2023-12-07T03:28:35;99009.50;;;5.56;100.00
2681;BME280;1350;42.134;24.708;2023-12-07T03:31:03;99019.91;;;5.59;100.00
2681;BME280;1350;42.134;24.708;2023-12-07T03:33:30;99014.56;;;5.61;100.00
2681;BME280;1350;42.134;24.708;2023-12-07T03:35:58;99015.47;;;5.60;100.00
2681;BME280;1350;42.134;24.708;2023-12-07T03:38:25;99011.56;;;5.70;100.00
2681;BME280;1350;42.134;24.708;2023-12-07T03:40:52;99016.16;;;5.65;100.00
2681;BME280;1350;42.134;24.708;2023-12-07T03:43:19;99014.44;;;5.64;100.00
2681;BME280;1350;42.134;24.708;2023-12-07T03:45:46;99017.00;;;5.65;100.00
2681;BME280;1350;42.134;24.708;2023-12-07T03:48:13;99008.63;;;6.17;100.00
2681;BME280;1350;42.134;24.708;2023-12-07T03:50:41;99005.56;;;6.46;100.00
2681;BME280;1350;42.134;24.708;2023-12-07T03:53:09;99008.31;;;6.05;100.00
2681;BME280;1350;42.134;24.708;2023-12-07T03:55:36;99006.75;;;6.01;100.00
2681;BME280;1350;42.134;24.708;2023-12-07T03:58:04;99004.22;;;6.18;100.00
2681;BME280;1350;42.134;24.708;2023-12-07T04:00:31;99015.50;;;5.80;100.00
2681;BME280;1350;42.134;24.708;2023-12-07T04:02:58;99006.53;;;6.05;100.00
2681;BME280;1350;42.134;24.708;2023-12-07T04:05:25;99007.84;;;5.95;100.00
2681;BME280;1350;42.134;24.708;2023-12-07T04:07:52;99013.31;;;5.91;100.00
2681;BME280;1350;42.134;24.708;2023-12-07T04:10:21;99016.13;;;6.06;100.00
2681;BME280;1350;42.134;24.708;2023-12-07T04:12:48;99009.25;;;6.04;100.00
2681;BME280;1350;42.134;24.708;2023-12-07T04:15:15;99016.59;;;5.96;100.00
2681;BME280;1350;42.134;24.708;2023-12-07T04:17:42;99014.56;;;5.82;100.00
2681;BME280;1350;42.134;24.708;2023-12-07T04:20:10;99017.88;;;5.66;100.00
2681;BME280;1350;42.134;24.708;2023-12-07T04:22:37;99020.38;;;5.69;100.00
2681;BME280;1350;42.134;24.708;2023-12-07T04:25:04;99015.84;;;5.51;100.00
2681;BME280;1350;42.134;24.708;2023-12-07T04:27:34;99014.28;;;5.47;100.00
2681;BME280;1350;42.134;24.708;2023-12-07T04:30:00;99013.59;;;5.42;100.00
2681;BME280;1350;42.134;24.708;2023-12-07T04:32:29;99015.97;;;5.48;100.00
2681;BME280;1350;42.134;24.708;2023-12-07T04:34:56;99013.78;;;5.37;100.00
2681;BME280;1350;42.134;24.708;2023-12-07T04:37:22;99012.59;;;5.46;100.00
2681;BME280;1350;42.134;24.708;2023-12-07T04:39:50;99018.13;;;5.80;100.00
2681;BME280;1350;42.134;24.708;2023-12-07T04:42:17;99022.13;;;5.90;100.00
2681;BME280;1350;42.134;24.708;2023-12-07T04:44:45;99027.94;;;5.98;100.00
2681;BME280;1350;42.134;24.708;2023-12-07T04:47:12;99018.25;;;5.77;100.00
2681;BME280;1350;42.134;24.708;2023-12-07T04:49:39;99026.94;;;6.00;100.00
2681;BME280;1350;42.134;24.708;2023-12-07T04:52:06;99022.00;;;6.13;100.00
2681;BME280;1350;42.134;24.708;2023-12-07T04:54:33;99038.16;;;5.84;100.00
2681;BME280;1350;42.134;24.708;2023-12-07T04:57:00;99042.56;;;5.83;100.00
2681;BME280;1350;42.134;24.708;2023-12-07T04:59:27;99040.47;;;5.70;100.00
2681;BME280;1350;42.134;24.708;2023-12-07T05:01:55;99047.09;;;5.58;100.00
2681;BME280;1350;42.134;24.708;2023-12-07T05:04:22;99032.50;;;5.51;100.00
2681;BME280;1350;42.134;24.708;2023-12-07T05:06:49;99038.63;;;5.52;100.00
2681;BME280;1350;42.134;24.708;2023-12-07T05:09:16;99036.59;;;4.93;100.00
2681;BME280;1350;42.134;24.708;2023-12-07T05:11:43;99042.16;;;4.84;100.00
2681;BME280;1350;42.134;24.708;2023-12-07T05:14:11;99043.78;;;4.88;100.00
2681;BME280;1350;42.134;24.708;2023-12-07T05:16:38;99049.75;;;4.70;100.00
2681;BME280;1350;42.134;24.708;2023-12-07T05:19:06;99051.84;;;4.84;100.00
2681;BME280;1350;42.134;24.708;2023-12-07T05:21:33;99042.38;;;5.01;100.00
2681;BME280;1350;42.134;24.708;2023-12-07T05:24:01;99044.84;;;4.83;100.00
2681;BME280;1350;42.134;24.708;2023-12-07T05:26:28;99043.16;;;4.82;100.00
2681;BME280;1350;42.134;24.708;2023-12-07T05:28:58;99051.09;;;4.80;100.00
2681;BME280;1350;42.134;24.708;2023-12-07T05:31:25;99054.75;;;4.76;100.00
2681;BME280;1350;42.134;24.708;2023-12-07T05:33:52;99052.38;;;4.70;100.00
2681;BME280;1350;42.134;24.708;2023-12-07T05:36:21;99057.72;;;4.67;100.00
2681;BME280;1350;42.134;24.708;2023-12-07T05:38:47;99052.47;;;4.67;100.00
2681;BME280;1350;42.134;24.708;2023-12-07T05:41:14;99063.00;;;4.66;100.00
2681;BME280;1350;42.134;24.708;2023-12-07T05:43:40;99062.28;;;4.62;100.00
2681;BME280;1350;42.134;24.708;2023-12-07T05:46:08;99068.75;;;4.52;100.00
2681;BME280;1350;42.134;24.708;2023-12-07T05:48:35;99073.97;;;4.54;100.00
2681;BME280;1350;42.134;24.708;2023-12-07T05:51:02;99088.69;;;4.58;100.00
2681;BME280;1350;42.134;24.708;2023-12-07T05:53:31;99094.06;;;4.55;100.00
2681;BME280;1350;42.134;24.708;2023-12-07T05:55:58;99087.38;;;5.15;100.00
2681;BME280;1350;42.134;24.708;2023-12-07T05:58:25;99088.41;;;5.11;100.00
2681;BME280;1350;42.134;24.708;2023-12-07T06:00:52;99095.25;;;5.15;100.00
2681;BME280;1350;42.134;24.708;2023-12-07T06:03:19;99097.13;;;4.66;100.00
2681;BME280;1350;42.134;24.708;2023-12-07T06:05:46;99089.97;;;4.46;100.00
2681;BME280;1350;42.134;24.708;2023-12-07T06:08:13;99100.22;;;4.54;100.00
2681;BME280;1350;42.134;24.708;2023-12-07T06:10:41;99094.47;;;4.43;100.00
2681;BME280;1350;42.134;24.708;2023-12-07T06:13:08;99095.88;;;4.28;100.00
2681;BME280;1350;42.134;24.708;2023-12-07T06:15:38;99093.59;;;4.44;100.00
2681;BME280;1350;42.134;24.708;2023-12-07T06:18:05;99095.25;;;5.15;100.00
2681;BME280;1350;42.134;24.708;2023-12-07T06:20:36;99095.63;;;4.83;100.00
2681;BME280;1350;42.134;24.708;2023-12-07T06:23:03;99097.06;;;4.69;100.00
2681;BME280;1350;42.134;24.708;2023-12-07T06:25:30;99100.84;;;4.60;100.00
2681;BME280;1350;42.134;24.708;2023-12-07T06:27:58;99100.69;;;4.65;100.00
2681;BME280;1350;42.134;24.708;2023-12-07T06:30:25;99104.16;;;4.65;100.00
2681;BME280;1350;42.134;24.708;2023-12-07T06:32:55;99101.78;;;4.59;100.00
2681;BME280;1350;42.134;24.708;2023-12-07T06:35:22;99108.44;;;4.68;100.00
2681;BME280;1350;42.134;24.708;2023-12-07T06:37:49;99109.47;;;4.64;100.00
2681;BME280;1350;42.134;24.708;2023-12-07T06:40:16;99112.31;;;4.58;100.00
2681;BME280;1350;42.134;24.708;2023-12-07T06:42:43;99105.19;;;4.61;100.00
2681;BME280;1350;42.134;24.708;2023-12-07T06:45:15;99109.03;;;4.76;100.00
2681;BME280;1350;42.134;24.708;2023-12-07T06:47:42;99112.41;;;4.79;100.00
2681;BME280;1350;42.134;24.708;2023-12-07T06:50:09;99104.59;;;4.78;100.00
2681;BME280;1350;42.134;24.708;2023-12-07T06:52:36;99107.50;;;4.93;100.00
2681;BME280;1350;42.134;24.708;2023-12-07T06:55:04;99112.06;;;5.11;100.00
2681;BME280;1350;42.134;24.708;2023-12-07T06:57:31;99123.31;;;5.15;100.00
2681;BME280;1350;42.134;24.708;2023-12-07T06:59:58;99112.34;;;5.49;100.00
2681;BME280;1350;42.134;24.708;2023-12-07T07:02:28;99115.78;;;5.28;100.00
2681;BME280;1350;42.134;24.708;2023-12-07T07:04:55;99116.34;;;5.36;100.00
2681;BME280;1350;42.134;24.708;2023-12-07T07:07:22;99118.81;;;5.40;100.00
2681;BME280;1350;42.134;24.708;2023-12-07T07:09:49;99111.00;;;5.60;100.00
2681;BME280;1350;42.134;24.708;2023-12-07T07:12:16;99123.91;;;5.88;100.00
2681;BME280;1350;42.134;24.708;2023-12-07T07:14:43;99133.69;;;6.26;100.00
2681;BME280;1350;42.134;24.708;2023-12-07T07:17:10;99129.63;;;7.18;100.00
2681;BME280;1350;42.134;24.708;2023-12-07T07:19:38;99137.53;;;7.18;100.00
2681;BME280;1350;42.134;24.708;2023-12-07T07:22:05;99142.75;;;6.99;100.00
2681;BME280;1350;42.134;24.708;2023-12-07T07:24:32;99148.25;;;6.95;100.00
2681;BME280;1350;42.134;24.708;2023-12-07T07:26:59;99148.94;;;6.98;100.00
2681;BME280;1350;42.134;24.708;2023-12-07T07:29:26;99156.34;;;6.90;100.00
2681;BME280;1350;42.134;24.708;2023-12-07T07:31:53;99161.41;;;6.95;100.00
2681;BME280;1350;42.134;24.708;2023-12-07T07:34:21;99167.13;;;7.04;100.00
2681;BME280;1350;42.134;24.708;2023-12-07T07:36:52;99167.13;;;7.23;100.00
2681;BME280;1350;42.134;24.708;2023-12-07T07:39:18;99168.88;;;7.42;100.00
2681;BME280;1350;42.134;24.708;2023-12-07T07:41:45;99172.56;;;7.75;100.00
2681;BME280;1350;42.134;24.708;2023-12-07T07:44:12;99178.56;;;7.79;100.00
2681;BME280;1350;42.134;24.708;2023-12-07T07:46:40;99185.97;;;7.71;100.00
2681;BME280;1350;42.134;24.708;2023-12-07T07:49:07;99192.41;;;7.65;100.00
2681;BME280;1350;42.134;24.708;2023-12-07T07:51:34;99190.69;;;7.64;100.00
2681;BME280;1350;42.134;24.708;2023-12-07T07:54:03;99185.25;;;7.67;100.00
2681;BME280;1350;42.134;24.708;2023-12-07T07:56:30;99193.69;;;7.75;100.00
2681;BME280;1350;42.134;24.708;2023-12-07T07:58:57;99186.47;;;7.79;100.00
2681;BME280;1350;42.134;24.708;2023-12-07T08:01:26;99188.75;;;7.86;100.00
2681;BME280;1350;42.134;24.708;2023-12-07T08:03:53;99190.06;;;7.78;100.00
2681;BME280;1350;42.134;24.708;2023-12-07T08:06:20;99200.09;;;7.88;100.00
2681;BME280;1350;42.134;24.708;2023-12-07T08:08:47;99191.09;;;7.74;100.00
2681;BME280;1350;42.134;24.708;2023-12-07T08:11:16;99195.81;;;7.67;100.00
2681;BME280;1350;42.134;24.708;2023-12-07T08:13:43;99204.09;;;8.32;100.00
2681;BME280;1350;42.134;24.708;2023-12-07T08:16:10;99201.50;;;8.67;100.00
2681;BME280;1350;42.134;24.708;2023-12-07T08:18:37;99204.03;;;8.15;100.00
2681;BME280;1350;42.134;24.708;2023-12-07T08:21:04;99202.88;;;8.04;100.00
2681;BME280;1350;42.134;24.708;2023-12-07T08:23:33;99201.34;;;7.98;100.00
2681;BME280;1350;42.134;24.708;2023-12-07T08:26:00;99202.19;;;8.17;100.00
2681;BME280;1350;42.134;24.708;2023-12-07T08:28:29;99203.88;;;8.18;100.00
2681;BME280;1350;42.134;24.708;2023-12-07T08:30:56;99207.97;;;9.11;100.00
2681;BME280;1350;42.134;24.708;2023-12-07T08:33:23;99222.97;;;8.95;100.00
2681;BME280;1350;42.134;24.708;2023-12-07T08:35:50;99216.56;;;8.82;100.00
2681;BME280;1350;42.134;24.708;2023-12-07T08:38:20;99225.84;;;8.73;100.00
2681;BME280;1350;42.134;24.708;2023-12-07T08:40:48;99215.03;;;8.78;100.00
2681;BME280;1350;42.134;24.708;2023-12-07T08:43:15;99216.00;;;8.75;100.00
2681;BME280;1350;42.134;24.708;2023-12-07T08:45:44;99211.53;;;8.77;100.00
2681;BME280;1350;42.134;24.708;2023-12-07T08:48:10;99220.72;;;8.70;100.00
2681;BME280;1350;42.134;24.708;2023-12-07T08:50:38;99220.94;;;8.66;100.00
2681;BME280;1350;42.134;24.708;2023-12-07T08:53:05;99209.44;;;8.67;100.00
2681;BME280;1350;42.134;24.708;2023-12-07T08:55:31;99204.63;;;8.75;100.00
2681;BME280;1350;42.134;24.708;2023-12-07T08:57:59;99204.38;;;8.62;100.00
2681;BME280;1350;42.134;24.708;2023-12-07T09:00:28;99203.97;;;8.70;100.00
2681;BME280;1350;42.134;24.708;2023-12-07T09:02:57;99196.59;;;8.76;100.00
2681;BME280;1350;42.134;24.708;2023-12-07T09:05:25;99197.13;;;8.83;100.00
2681;BME280;1350;42.134;24.708;2023-12-07T09:07:52;99189.63;;;9.08;100.00
2681;BME280;1350;42.134;24.708;2023-12-07T09:10:19;99193.78;;;9.29;100.00
2681;BME280;1350;42.134;24.708;2023-12-07T09:12:46;99196.50;;;10.06;100.00
2681;BME280;1350;42.134;24.708;2023-12-07T09:15:19;99201.38;;;10.45;100.00
2681;BME280;1350;42.134;24.708;2023-12-07T09:17:46;99200.06;;;10.82;100.00
2681;BME280;1350;42.134;24.708;2023-12-07T09:20:15;99199.53;;;11.05;100.00
2681;BME280;1350;42.134;24.708;2023-12-07T09:22:43;99194.75;;;11.25;100.00
2681;BME280;1350;42.134;24.708;2023-12-07T09:25:10;99195.59;;;11.40;100.00
2681;BME280;1350;42.134;24.708;2023-12-07T09:27:38;99193.88;;;11.81;100.00
2681;BME280;1350;42.134;24.708;2023-12-07T09:30:06;99194.94;;;11.64;100.00
2681;BME280;1350;42.134;24.708;2023-12-07T09:32:36;99193.53;;;11.73;100.00
2681;BME280;1350;42.134;24.708;2023-12-07T09:35:04;99194.25;;;11.89;100.00
2681;BME280;1350;42.134;24.708;2023-12-07T09:37:34;99193.78;;;11.82;100.00
2681;BME280;1350;42.134;24.708;2023-12-07T09:40:01;99188.91;;;12.03;100.00
2681;BME280;1350;42.134;24.708;2023-12-07T09:42:31;99181.75;;;12.44;100.00
2681;BME280;1350;42.134;24.708;2023-12-07T09:44:58;99187.25;;;12.68;100.00
2681;BME280;1350;42.134;24.708;2023-12-07T09:47:26;99191.41;;;12.84;100.00
2681;BME280;1350;42.134;24.708;2023-12-07T09:49:54;99190.69;;;12.95;100.00
2681;BME280;1350;42.134;24.708;2023-12-07T09:52:21;99187.59;;;12.76;100.00
2681;BME280;1350;42.134;24.708;2023-12-07T09:54:52;99180.69;;;12.47;100.00
2681;BME280;1350;42.134;24.708;2023-12-07T09:57:21;99186.22;;;12.44;100.00
2681;BME280;1350;42.134;24.708;2023-12-07T09:59:48;99181.59;;;12.33;100.00
2681;BME280;1350;42.134;24.708;2023-12-07T10:02:15;99182.63;;;11.63;100.00
2681;BME280;1350;42.134;24.708;2023-12-07T10:04:43;99181.66;;;11.64;100.00
2681;BME280;1350;42.134;24.708;2023-12-07T10:07:10;99173.50;;;11.67;100.00
2681;BME280;1350;42.134;24.708;2023-12-07T10:09:38;99174.66;;;11.77;100.00
2681;BME280;1350;42.134;24.708;2023-12-07T10:12:07;99173.97;;;11.46;100.00
2681;BME280;1350;42.134;24.708;2023-12-07T10:14:34;99179.38;;;11.44;100.00
2681;BME280;1350;42.134;24.708;2023-12-07T10:17:01;99176.03;;;11.41;100.00
2681;BME280;1350;42.134;24.708;2023-12-07T10:19:29;99168.75;;;11.58;100.00
2681;BME280;1350;42.134;24.708;2023-12-07T10:21:56;99170.84;;;11.67;100.00
2681;BME280;1350;42.134;24.708;2023-12-07T10:24:25;99164.41;;;11.57;100.00
2681;BME280;1350;42.134;24.708;2023-12-07T10:26:52;99170.47;;;11.73;100.00
2681;BME280;1350;42.134;24.708;2023-12-07T10:29:21;99168.28;;;11.80;100.00
2681;BME280;1350;42.134;24.708;2023-12-07T10:31:49;99157.56;;;11.81;100.00
2681;BME280;1350;42.134;24.708;2023-12-07T10:34:18;99156.03;;;11.92;100.00
2681;BME280;1350;42.134;24.708;2023-12-07T10:36:46;99158.22;;;11.57;100.00
2681;BME280;1350;42.134;24.708;2023-12-07T10:39:14;99163.59;;;11.98;100.00
2681;BME280;1350;42.134;24.708;2023-12-07T10:41:43;99162.03;;;12.08;100.00
2681;BME280;1350;42.134;24.708;2023-12-07T10:44:11;99152.78;;;12.01;100.00
2681;BME280;1350;42.134;24.708;2023-12-07T10:46:42;99158.91;;;11.74;100.00
2681;BME280;1350;42.134;24.708;2023-12-07T10:49:14;99145.47;;;11.63;100.00
2681;BME280;1350;42.134;24.708;2023-12-07T10:51:47;99152.63;;;11.61;100.00
2681;BME280;1350;42.134;24.708;2023-12-07T10:54:20;99151.41;;;11.39;100.00
2681;BME280;1350;42.134;24.708;2023-12-07T10:56:48;99148.88;;;11.37;100.00
2681;BME280;1350;42.134;24.708;2023-12-07T10:59:16;99137.09;;;11.69;100.00
2681;BME280;1350;42.134;24.708;2023-12-07T11:01:47;99133.66;;;12.08;100.00
2681;BME280;1350;42.134;24.708;2023-12-07T11:04:15;99140.16;;;12.17;100.00
2681;BME280;1350;42.134;24.708;2023-12-07T11:06:45;99137.00;;;12.24;100.00
2681;BME280;1350;42.134;24.708;2023-12-07T11:09:15;99138.47;;;12.16;100.00
2681;BME280;1350;42.134;24.708;2023-12-07T11:11:48;99139.91;;;12.34;100.00
2681;BME280;1350;42.134;24.708;2023-12-07T11:14:18;99136.50;;;12.32;100.00
2681;BME280;1350;42.134;24.708;2023-12-07T11:16:47;99131.28;;;12.30;100.00
2681;BME280;1350;42.134;24.708;2023-12-07T11:19:46;99132.66;;;12.23;100.00
2681;BME280;1350;42.134;24.708;2023-12-07T11:22:14;99129.63;;;12.42;100.00
2681;BME280;1350;42.134;24.708;2023-12-07T11:24:57;99132.38;;;12.40;100.00
2681;BME280;1350;42.134;24.708;2023-12-07T11:27:29;99128.78;;;12.54;100.00
2681;BME280;1350;42.134;24.708;2023-12-07T11:29:58;99123.41;;;12.68;100.00
2681;BME280;1350;42.134;24.708;2023-12-07T11:32:28;99126.09;;;12.80;100.00
2681;BME280;1350;42.134;24.708;2023-12-07T11:35:01;99122.03;;;12.87;100.00
2681;BME280;1350;42.134;24.708;2023-12-07T11:38:01;99117.31;;;12.66;100.00
2681;BME280;1350;42.134;24.708;2023-12-07T11:40:32;99113.03;;;12.38;100.00
2681;BME280;1350;42.134;24.708;2023-12-07T11:43:00;99116.72;;;11.56;100.00
2681;BME280;1350;42.134;24.708;2023-12-07T11:45:40;99108.66;;;11.29;100.00
2681;BME280;1350;42.134;24.708;2023-12-07T11:48:13;99108.28;;;11.35;100.00
2681;BME280;1350;42.134;24.708;2023-12-07T11:50:54;99110.75;;;11.66;100.00
2681;BME280;1350;42.134;24.708;2023-12-07T11:53:22;99113.34;;;11.80;100.00
2681;BME280;1350;42.134;24.708;2023-12-07T11:55:50;99106.28;;;11.53;100.00
2681;BME280;1350;42.134;24.708;2023-12-07T11:58:17;99101.22;;;11.76;100.00
2681;BME280;1350;42.134;24.708;2023-12-07T12:00:44;99104.78;;;12.16;100.00
2681;BME280;1350;42.134;24.708;2023-12-07T12:03:13;99103.38;;;12.11;100.00
2681;BME280;1350;42.134;24.708;2023-12-07T12:05:41;99098.16;;;11.82;100.00
2681;BME280;1350;42.134;24.708;2023-12-07T12:08:09;99102.81;;;12.06;100.00
2681;BME280;1350;42.134;24.708;2023-12-07T12:10:37;99100.59;;;12.39;100.00
2681;BME280;1350;42.134;24.708;2023-12-07T12:13:04;99098.19;;;12.61;100.00
2681;BME280;1350;42.134;24.708;2023-12-07T12:15:31;99104.16;;;12.77;100.00
2681;BME280;1350;42.134;24.708;2023-12-07T12:18:00;99101.69;;;12.74;100.00
2681;BME280;1350;42.134;24.708;2023-12-07T12:20:28;99096.16;;;12.64;100.00
2681;BME280;1350;42.134;24.708;2023-12-07T12:22:57;99104.19;;;11.99;100.00
2681;BME280;1350;42.134;24.708;2023-12-07T12:25:25;99100.47;;;11.60;100.00
2681;BME280;1350;42.134;24.708;2023-12-07T12:27:54;99090.69;;;11.75;100.00
2681;BME280;1350;42.134;24.708;2023-12-07T12:30:22;99090.41;;;12.06;100.00
2681;BME280;1350;42.134;24.708;2023-12-07T12:32:49;99082.88;;;11.45;100.00
2681;BME280;1350;42.134;24.708;2023-12-07T12:35:17;99093.84;;;11.53;100.00
2681;BME280;1350;42.134;24.708;2023-12-07T12:37:47;99090.06;;;11.43;100.00
2681;BME280;1350;42.134;24.708;2023-12-07T12:40:16;99086.94;;;11.37;100.00
2681;BME280;1350;42.134;24.708;2023-12-07T12:42:45;99083.09;;;11.14;100.00
2681;BME280;1350;42.134;24.708;2023-12-07T12:45:13;99083.84;;;11.16;100.00
2681;BME280;1350;42.134;24.708;2023-12-07T12:47:41;99078.28;;;11.21;100.00
2681;BME280;1350;42.134;24.708;2023-12-07T12:50:09;99076.44;;;11.21;100.00
2681;BME280;1350;42.134;24.708;2023-12-07T12:52:36;99080.47;;;11.00;100.00
2681;BME280;1350;42.134;24.708;2023-12-07T12:55:09;99074.66;;;11.08;100.00
2681;BME280;1350;42.134;24.708;2023-12-07T12:57:37;99078.97;;;11.51;100.00
2681;BME280;1350;42.134;24.708;2023-12-07T13:00:05;99080.75;;;11.64;100.00
2681;BME280;1350;42.134;24.708;2023-12-07T13:02:33;99077.97;;;11.80;100.00
2681;BME280;1350;42.134;24.708;2023-12-07T13:05:00;99090.75;;;11.87;100.00
2681;BME280;1350;42.134;24.708;2023-12-07T13:07:28;99086.75;;;11.95;100.00
2681;BME280;1350;42.134;24.708;2023-12-07T13:09:55;99090.19;;;11.82;100.00
2681;BME280;1350;42.134;24.708;2023-12-07T13:12:23;99090.53;;;11.90;100.00